Time;durP1;ratioP1;P1;durP2;ratioP2;P2;SDS_P1;SDS_P2;PMS_P1;PMS_P2;Temp;Humidity;BMP_temperature;BMP_pressure;BME280_temperature;BME280_humidity;BME280_pressure;Samples;Min_cycle;Max_cycle;Signal;HPM_P1;HPM_P2
2023/02/10 00:01:26;;;;;;;6.95;1.70;;;;;;;;;;5138159;27;20022;-75
2023/02/10 00:03:52;;;;;;;6.65;2.22;;;;;;;;;;5137059;27;20031;-74
2023/02/10 00:06:19;;;;;;;3.38;1.58;;;;;;;;;;5131767;27;20106;-75
2023/02/10 00:08:49;;;;;;;4.82;2.13;;;;;;;;;;5133650;27;20114;-75
2023/02/10 00:11:15;;;;;;;5.85;2.88;;;;;;;;;;5129579;27;20098;-75
2023/02/10 00:13:42;;;;;;;10.70;3.28;;;;;;;;;;5124445;27;20019;-75
2023/02/10 00:16:10;;;;;;;7.47;3.05;;;;;;;;;;5144928;27;20629;-75
2023/02/10 00:18:36;;;;;;;9.50;3.10;;;;;;;;;;5136342;27;20098;-71
2023/02/10 00:21:11;;;;;;;20.52;3.90;;;;;;;;;;5120912;27;20045;-74
2023/02/10 00:23:37;;;;;;;12.18;4.50;;;;;;;;;;5138963;27;20022;-74
2023/02/10 00:26:04;;;;;;;11.77;4.20;;;;;;;;;;5133947;27;20028;-74
2023/02/10 00:28:30;;;;;;;11.43;4.13;;;;;;;;;;5131375;27;20033;-74
2023/02/10 00:30:57;;;;;;;18.00;4.53;;;;;;;;;;5134547;27;20371;-74
2023/02/10 00:33:23;;;;;;;14.32;4.25;;;;;;;;;;5133922;27;20015;-74
2023/02/10 00:35:49;;;;;;;9.20;4.55;;;;;;;;;;5138019;27;20034;-75
2023/02/10 00:38:15;;;;;;;11.40;4.72;;;;;;;;;;5138219;27;20074;-75
2023/02/10 00:40:41;;;;;;;17.73;4.90;;;;;;;;;;5136056;27;20424;-74
2023/02/10 00:43:07;;;;;;;15.55;4.60;;;;;;;;;;5133789;27;20448;-75
2023/02/10 00:45:33;;;;;;;11.13;4.10;;;;;;;;;;5135768;27;20030;-75
2023/02/10 00:48:00;;;;;;;15.73;5.18;;;;;;;;;;5129615;27;20029;-75
2023/02/10 00:50:26;;;;;;;14.25;4.60;;;;;;;;;;5136925;27;20027;-75
2023/02/10 00:52:52;;;;;;;9.82;4.97;;;;;;;;;;5129132;27;20023;-74
2023/02/10 00:55:18;;;;;;;12.13;5.18;;;;;;;;;;5136593;27;20126;-75
2023/02/10 00:57:44;;;;;;;10.65;4.15;;;;;;;;;;5128040;27;20015;-74
2023/02/10 01:00:11;;;;;;;11.98;4.38;;;;;;;;;;5134007;27;20022;-75
2023/02/10 01:02:37;;;;;;;12.23;4.35;;;;;;;;;;5135896;27;20858;-75
2023/02/10 01:05:03;;;;;;;10.52;4.57;;;;;;;;;;5117277;27;20019;-74
2023/02/10 01:07:29;;;;;;;11.70;4.93;;;;;;;;;;5135994;27;20041;-74
2023/02/10 01:09:56;;;;;;;11.75;4.53;;;;;;;;;;5130499;27;20599;-74
2023/02/10 01:12:22;;;;;;;11.77;4.60;;;;;;;;;;5139726;27;20554;-75
2023/02/10 01:14:49;;;;;;;15.82;4.90;;;;;;;;;;5136317;27;20053;-75
2023/02/10 01:17:17;;;;;;;17.42;4.63;;;;;;;;;;5136835;27;20060;-75
2023/02/10 01:19:43;;;;;;;12.27;4.53;;;;;;;;;;5128428;27;20043;-74
2023/02/10 01:22:09;;;;;;;12.57;4.03;;;;;;;;;;5134685;27;20093;-74
2023/02/10 01:24:35;;;;;;;10.90;4.07;;;;;;;;;;5130266;27;20748;-74
2023/02/10 01:27:01;;;;;;;13.00;3.67;;;;;;;;;;5136854;27;20050;-74
2023/02/10 01:29:27;;;;;;;10.50;3.85;;;;;;;;;;5143817;27;20031;-75
2023/02/10 01:31:54;;;;;;;17.17;4.45;;;;;;;;;;5130302;27;20027;-75
2023/02/10 01:34:20;;;;;;;10.52;4.30;;;;;;;;;;5142354;27;20029;-75
2023/02/10 01:36:46;;;;;;;15.43;4.20;;;;;;;;;;5131154;27;20076;-75
2023/02/10 01:39:12;;;;;;;10.68;4.00;;;;;;;;;;5140311;27;20041;-74
2023/02/10 01:41:38;;;;;;;15.18;4.20;;;;;;;;;;5135998;27;20061;-75
2023/02/10 01:44:06;;;;;;;15.38;4.47;;;;;;;;;;5133617;27;20014;-75
2023/02/10 01:46:34;;;;;;;13.75;4.57;;;;;;;;;;5136359;27;20011;-75
2023/02/10 01:49:02;;;;;;;13.15;4.05;;;;;;;;;;5129324;27;20029;-74
2023/02/10 01:51:34;;;;;;;9.73;4.18;;;;;;;;;;5136635;27;20025;-74
2023/02/10 01:54:00;;;;;;;11.50;4.13;;;;;;;;;;5127640;27;20023;-74
2023/02/10 01:56:26;;;;;;;13.40;4.10;;;;;;;;;;5135934;27;20031;-75
2023/02/10 01:58:53;;;;;;;14.60;4.13;;;;;;;;;;5130147;27;20019;-74
2023/02/10 02:01:19;;;;;;;8.90;4.03;;;;;;;;;;5133917;27;20034;-74
2023/02/10 02:03:45;;;;;;;7.07;2.80;;;;;;;;;;5134231;27;20046;-75
2023/02/10 02:06:11;;;;;;;6.85;3.10;;;;;;;;;;5131127;27;20094;-74
2023/02/10 02:08:38;;;;;;;11.48;3.13;;;;;;;;;;5134231;27;20027;-75
2023/02/10 02:11:10;;;;;;;12.75;3.45;;;;;;;;;;5128312;27;20559;-74
2023/02/10 02:13:55;;;;;;;11.23;3.67;;;;;;;;;;5136436;27;20033;-75
2023/02/10 02:16:44;;;;;;;7.90;3.47;;;;;;;;;;5133289;27;20135;-75
2023/02/10 02:19:13;;;;;;;13.48;4.05;;;;;;;;;;5142163;27;20113;-74
2023/02/10 02:21:39;;;;;;;7.80;3.60;;;;;;;;;;5122376;27;20498;-75
2023/02/10 02:24:24;;;;;;;9.52;3.95;;;;;;;;;;5137781;27;20019;-75
2023/02/10 02:26:56;;;;;;;14.30;4.20;;;;;;;;;;5138357;27;20020;-74
2023/02/10 02:29:22;;;;;;;;;;;;;;;;;;5138494;27;20105;-75
2023/02/10 02:31:54;;;;;;;10.48;3.85;;;;;;;;;;5144707;27;20029;-75
2023/02/10 02:34:29;;;;;;;12.88;4.55;;;;;;;;;;5134716;27;20023;-74
2023/02/10 02:36:58;;;;;;;10.80;3.80;;;;;;;;;;5135043;27;20117;-74
2023/02/10 02:39:25;;;;;;;12.80;4.00;;;;;;;;;;5133330;27;20015;-75
2023/02/10 02:42:11;;;;;;;11.23;3.90;;;;;;;;;;5115628;27;20462;-75
2023/02/10 02:44:37;;;;;;;12.90;3.53;;;;;;;;;;5129537;27;20015;-75
2023/02/10 02:47:12;;;;;;;12.52;3.67;;;;;;;;;;5129822;27;20042;-75
2023/02/10 02:49:40;;;;;;;8.30;3.50;;;;;;;;;;5112112;27;20027;-75
2023/02/10 02:52:15;;;;;;;9.27;3.17;;;;;;;;;;5132073;27;20011;-74
2023/02/10 02:54:41;;;;;;;8.35;3.53;;;;;;;;;;5137685;27;20044;-74
2023/02/10 02:57:11;;;;;;;14.27;3.90;;;;;;;;;;5130433;27;20469;-76
2023/02/10 02:59:41;;;;;;;6.93;3.80;;;;;;;;;;5135823;27;20022;-74
2023/02/10 03:02:10;;;;;;;10.98;3.70;;;;;;;;;;5121681;27;20015;-74
2023/02/10 03:04:37;;;;;;;12.73;3.40;;;;;;;;;;5137035;27;20450;-74
2023/02/10 03:07:04;;;;;;;8.48;3.60;;;;;;;;;;5128233;27;20015;-75
2023/02/10 03:09:30;;;;;;;13.90;3.33;;;;;;;;;;5135670;27;20023;-75
2023/02/10 03:11:57;;;;;;;8.52;3.80;;;;;;;;;;5116227;27;20033;-74
2023/02/10 03:14:23;;;;;;;14.23;3.20;;;;;;;;;;5132413;27;20023;-74
2023/02/10 03:16:49;;;;;;;16.27;4.13;;;;;;;;;;5136507;27;20101;-75
2023/02/10 03:19:15;;;;;;;9.82;3.25;;;;;;;;;;5134382;27;20032;-75
2023/02/10 03:21:42;;;;;;;12.57;3.85;;;;;;;;;;5138163;27;20027;-74
2023/02/10 03:24:08;;;;;;;11.07;4.03;;;;;;;;;;5132612;27;20016;-74
2023/02/10 03:26:35;;;;;;;7.45;2.97;;;;;;;;;;5135433;27;20106;-74
2023/02/10 03:29:02;;;;;;;14.88;3.70;;;;;;;;;;5140142;27;20094;-75
2023/02/10 03:31:28;;;;;;;6.80;3.40;;;;;;;;;;5134124;27;20023;-74
2023/02/10 03:33:54;;;;;;;9.98;3.63;;;;;;;;;;5135306;27;20035;-74
2023/02/10 03:36:20;;;;;;;13.13;3.60;;;;;;;;;;5133641;27;20076;-74
2023/02/10 03:38:46;;;;;;;16.23;2.63;;;;;;;;;;5133814;27;20015;-75
2023/02/10 03:41:13;;;;;;;9.40;2.67;;;;;;;;;;5117772;27;20023;-75
2023/02/10 03:43:41;;;;;;;10.43;2.78;;;;;;;;;;5134226;27;20058;-75
2023/02/10 03:46:07;;;;;;;7.03;2.63;;;;;;;;;;5131018;27;20056;-75
2023/02/10 03:48:33;;;;;;;10.73;2.35;;;;;;;;;;5138177;27;20803;-74
2023/02/10 03:51:00;;;;;;;8.45;2.75;;;;;;;;;;5129986;27;20037;-75
2023/02/10 03:53:27;;;;;;;12.55;3.03;;;;;;;;;;5132021;27;20087;-74
2023/02/10 03:55:53;;;;;;;9.73;2.28;;;;;;;;;;5127774;27;20121;-75
2023/02/10 03:58:19;;;;;;;8.43;2.85;;;;;;;;;;5136564;27;20019;-75
2023/02/10 04:00:46;;;;;;;6.60;2.53;;;;;;;;;;5133510;27;20600;-74
2023/02/10 04:03:12;;;;;;;15.70;2.63;;;;;;;;;;5129780;27;20390;-75
2023/02/10 04:05:38;;;;;;;6.03;2.30;;;;;;;;;;5132472;27;20096;-75
2023/02/10 04:08:04;;;;;;;10.38;3.03;;;;;;;;;;5128479;27;20544;-75
2023/02/10 04:10:31;;;;;;;10.15;2.65;;;;;;;;;;5135629;27;20023;-75
2023/02/10 04:12:57;;;;;;;7.85;2.42;;;;;;;;;;5128843;27;20138;-75
2023/02/10 04:15:23;;;;;;;9.50;2.47;;;;;;;;;;5130310;27;20182;-74
2023/02/10 04:17:49;;;;;;;8.90;2.00;;;;;;;;;;5138591;27;20041;-75
2023/02/10 04:20:16;;;;;;;6.88;1.80;;;;;;;;;;5129628;27;20488;-75
2023/02/10 04:22:42;;;;;;;13.50;3.67;;;;;;;;;;5124891;27;20019;-74
2023/02/10 04:25:08;;;;;;;9.52;2.67;;;;;;;;;;5133601;27;20019;-75
2023/02/10 04:27:34;;;;;;;10.25;2.53;;;;;;;;;;5128819;27;20048;-74
2023/02/10 04:30:00;;;;;;;6.65;2.67;;;;;;;;;;5133160;27;20374;-75
2023/02/10 04:32:27;;;;;;;7.95;2.58;;;;;;;;;;5132342;27;20498;-75
2023/02/10 04:34:53;;;;;;;5.78;2.60;;;;;;;;;;5114837;27;20118;-74
2023/02/10 04:37:19;;;;;;;6.72;2.38;;;;;;;;;;5127140;27;20037;-75
2023/02/10 04:39:45;;;;;;;8.68;1.83;;;;;;;;;;5130046;27;20011;-75
2023/02/10 04:42:11;;;;;;;9.45;2.58;;;;;;;;;;5132681;27;20030;-75
2023/02/10 04:44:37;;;;;;;9.50;2.25;;;;;;;;;;5128734;27;20514;-74
2023/02/10 04:47:04;;;;;;;14.10;1.90;;;;;;;;;;5135015;27;20566;-74
2023/02/10 04:49:30;;;;;;;7.18;2.00;;;;;;;;;;5133450;27;20478;-74
2023/02/10 04:51:56;;;;;;;5.38;1.77;;;;;;;;;;5132702;27;20076;-74
2023/02/10 04:54:22;;;;;;;7.03;2.22;;;;;;;;;;5133298;27;20019;-74
2023/02/10 04:56:48;;;;;;;9.65;2.78;;;;;;;;;;5136560;27;20080;-74
2023/02/10 04:59:15;;;;;;;8.52;2.28;;;;;;;;;;5132385;27;20020;-74
2023/02/10 05:01:41;;;;;;;10.20;2.67;;;;;;;;;;5128938;27;20038;-74
2023/02/10 05:04:07;;;;;;;10.35;2.33;;;;;;;;;;5133064;27;20032;-75
2023/02/10 05:06:33;;;;;;;5.55;1.90;;;;;;;;;;5133683;27;20015;-75
2023/02/10 05:08:59;;;;;;;6.45;2.53;;;;;;;;;;5131179;27;20106;-75
2023/02/10 05:11:26;;;;;;;6.25;1.88;;;;;;;;;;5134970;27;20050;-74
2023/02/10 05:13:52;;;;;;;5.60;2.17;;;;;;;;;;5132445;27;20471;-75
2023/02/10 05:16:18;;;;;;;5.00;2.42;;;;;;;;;;5137440;27;20035;-74
2023/02/10 05:18:44;;;;;;;7.85;2.13;;;;;;;;;;5134421;27;20691;-74
2023/02/10 05:21:12;;;;;;;8.38;2.78;;;;;;;;;;5127516;27;20072;-74
2023/02/10 05:23:39;;;;;;;11.40;2.40;;;;;;;;;;5134586;27;20035;-74
2023/02/10 05:26:06;;;;;;;7.28;2.83;;;;;;;;;;5127667;27;20567;-74
2023/02/10 05:28:32;;;;;;;8.00;2.22;;;;;;;;;;5136208;27;20091;-75
2023/02/10 05:30:58;;;;;;;11.23;2.67;;;;;;;;;;5128326;27;20027;-74
2023/02/10 05:33:24;;;;;;;8.55;1.98;;;;;;;;;;5129241;27;20015;-74
2023/02/10 05:35:50;;;;;;;3.33;1.60;;;;;;;;;;5136400;27;20027;-74
2023/02/10 05:38:16;;;;;;;6.63;2.50;;;;;;;;;;5127597;27;20015;-74
2023/02/10 05:40:43;;;;;;;8.85;2.03;;;;;;;;;;5135442;27;20018;-74
2023/02/10 05:43:09;;;;;;;12.07;1.88;;;;;;;;;;5125964;27;20028;-74
2023/02/10 05:45:36;;;;;;;8.43;2.30;;;;;;;;;;5132628;27;20027;-75
2023/02/10 05:48:02;;;;;;;8.48;1.90;;;;;;;;;;5128725;27;20019;-74
2023/02/10 05:50:29;;;;;;;11.25;2.10;;;;;;;;;;5130210;27;20023;-74
2023/02/10 05:52:55;;;;;;;6.07;1.80;;;;;;;;;;5135879;27;20096;-74
2023/02/10 05:55:22;;;;;;;7.80;1.98;;;;;;;;;;5131090;27;20070;-74
2023/02/10 05:57:50;;;;;;;9.38;1.88;;;;;;;;;;5136192;27;20026;-75
2023/02/10 06:00:17;;;;;;;8.45;2.28;;;;;;;;;;5129856;27;21473;-74
2023/02/10 06:02:43;;;;;;;14.40;2.72;;;;;;;;;;5134640;27;20438;-75
2023/02/10 06:05:09;;;;;;;4.90;2.00;;;;;;;;;;5125290;27;20041;-75
2023/02/10 06:07:35;;;;;;;6.78;1.95;;;;;;;;;;5131240;27;20027;-74
2023/02/10 06:10:01;;;;;;;5.45;2.58;;;;;;;;;;5127814;27;20029;-74
2023/02/10 06:12:27;;;;;;;7.10;2.10;;;;;;;;;;5128499;27;20413;-74
2023/02/10 06:14:54;;;;;;;6.78;2.28;;;;;;;;;;5133754;27;20029;-75
2023/02/10 06:17:20;;;;;;;9.60;2.47;;;;;;;;;;5126799;27;20071;-75
2023/02/10 06:19:46;;;;;;;6.03;2.60;;;;;;;;;;5130097;27;20050;-74
2023/02/10 06:22:12;;;;;;;8.93;2.60;;;;;;;;;;5131520;27;20478;-78
2023/02/10 06:24:38;;;;;;;12.25;3.60;;;;;;;;;;5130036;27;20030;-77
2023/02/10 06:27:05;;;;;;;5.13;1.80;;;;;;;;;;5131745;27;20014;-75
2023/02/10 06:29:31;;;;;;;9.85;2.30;;;;;;;;;;5131323;27;20102;-75
2023/02/10 06:31:57;;;;;;;6.85;2.38;;;;;;;;;;5129215;27;20014;-74
2023/02/10 06:34:23;;;;;;;11.98;2.90;;;;;;;;;;5130903;27;20015;-74
2023/02/10 06:36:50;;;;;;;10.52;3.50;;;;;;;;;;5126168;27;20035;-74
2023/02/10 06:39:16;;;;;;;9.43;3.20;;;;;;;;;;5129703;27;20029;-74
2023/02/10 06:41:42;;;;;;;8.18;2.80;;;;;;;;;;5123756;27;20030;-77
2023/02/10 06:44:08;;;;;;;7.72;2.75;;;;;;;;;;5138059;27;20023;-74
2023/02/10 06:46:34;;;;;;;7.32;2.38;;;;;;;;;;5140524;27;20023;-77
2023/02/10 06:49:02;;;;;;;10.10;3.35;;;;;;;;;;5132042;27;20594;-75
2023/02/10 06:51:28;;;;;;;9.57;2.70;;;;;;;;;;5138338;27;20011;-75
2023/02/10 06:53:54;;;;;;;6.22;2.45;;;;;;;;;;5125928;27;20041;-75
2023/02/10 06:56:20;;;;;;;12.00;3.28;;;;;;;;;;5111660;27;20431;-75
2023/02/10 06:58:46;;;;;;;7.18;2.08;;;;;;;;;;5124457;27;20023;-75
2023/02/10 07:01:16;;;;;;;6.22;3.25;;;;;;;;;;5131147;27;20023;-75
2023/02/10 07:03:43;;;;;;;6.85;2.97;;;;;;;;;;5131799;27;20743;-76
2023/02/10 07:06:09;;;;;;;15.18;2.90;;;;;;;;;;5128314;27;20480;-75
2023/02/10 07:08:35;;;;;;;9.50;2.83;;;;;;;;;;5130601;27;20022;-77
2023/02/10 07:11:01;;;;;;;10.40;2.85;;;;;;;;;;5128258;27;20652;-75
2023/02/10 07:13:27;;;;;;;10.15;3.30;;;;;;;;;;5130015;27;20019;-75
2023/02/10 07:15:55;;;;;;;6.63;3.75;;;;;;;;;;5123786;27;20115;-75
2023/02/10 07:18:21;;;;;;;13.13;3.47;;;;;;;;;;5130684;27;20015;-75
2023/02/10 07:20:47;;;;;;;8.20;3.13;;;;;;;;;;5115379;28;20049;-75
2023/02/10 07:23:13;;;;;;;10.70;3.88;;;;;;;;;;5131163;27;20031;-77
2023/02/10 07:25:39;;;;;;;10.95;2.85;;;;;;;;;;5126409;27;20024;-76
2023/02/10 07:28:07;;;;;;;10.88;3.05;;;;;;;;;;5127829;27;20028;-77
2023/02/10 07:30:34;;;;;;;10.98;3.33;;;;;;;;;;5125922;27;20016;-74
2023/02/10 07:33:00;;;;;;;12.23;3.90;;;;;;;;;;5128454;27;20431;-75
2023/02/10 07:35:26;;;;;;;8.77;3.20;;;;;;;;;;5133174;27;20042;-74
2023/02/10 07:37:52;;;;;;;12.68;3.05;;;;;;;;;;5127265;27;20024;-75
2023/02/10 07:40:18;;;;;;;7.88;3.28;;;;;;;;;;5129991;27;20039;-75
2023/02/10 07:42:44;;;;;;;10.48;3.47;;;;;;;;;;5126559;27;20019;-75
2023/02/10 07:45:11;;;;;;;10.50;3.38;;;;;;;;;;5129707;27;20058;-75
2023/02/10 07:47:37;;;;;;;11.85;4.25;;;;;;;;;;5134168;27;20043;-76
2023/02/10 07:50:03;;;;;;;7.28;2.55;;;;;;;;;;5127110;27;20019;-75
2023/02/10 07:52:30;;;;;;;7.05;2.70;;;;;;;;;;5133175;27;20602;-75
2023/02/10 07:54:56;;;;;;;13.27;3.15;;;;;;;;;;5127004;27;20468;-75
2023/02/10 07:57:22;;;;;;;15.95;3.70;;;;;;;;;;5131718;27;20704;-75
2023/02/10 07:59:48;;;;;;;12.27;3.97;;;;;;;;;;5129059;27;20042;-75
2023/02/10 08:02:14;;;;;;;12.20;3.15;;;;;;;;;;5134264;27;20027;-75
2023/02/10 08:04:41;;;;;;;8.65;3.03;;;;;;;;;;5129465;27;20022;-75
2023/02/10 08:07:07;;;;;;;11.57;3.78;;;;;;;;;;5132470;27;20106;-76
2023/02/10 08:09:33;;;;;;;13.57;3.08;;;;;;;;;;5128423;27;20255;-75
2023/02/10 08:11:59;;;;;;;6.80;2.88;;;;;;;;;;5132215;27;20072;-75
2023/02/10 08:14:26;;;;;;;8.57;3.03;;;;;;;;;;5135992;27;20025;-75
2023/02/10 08:16:52;;;;;;;11.07;3.22;;;;;;;;;;5130677;27;20122;-75
2023/02/10 08:19:18;;;;;;;14.45;4.43;;;;;;;;;;5132163;27;20116;-76
2023/02/10 08:21:44;;;;;;;7.28;3.63;;;;;;;;;;5135351;27;20027;-75
2023/02/10 08:24:10;;;;;;;9.27;3.08;;;;;;;;;;5132792;27;20029;-74
2023/02/10 08:26:36;;;;;;;20.33;3.72;;;;;;;;;;5132724;27;20175;-75
2023/02/10 08:29:03;;;;;;;11.10;3.67;;;;;;;;;;5132846;27;20177;-75
2023/02/10 08:31:29;;;;;;;13.40;3.67;;;;;;;;;;5128428;27;20067;-75
2023/02/10 08:33:55;;;;;;;7.63;3.30;;;;;;;;;;5126447;27;20023;-75
2023/02/10 08:36:22;;;;;;;14.30;3.17;;;;;;;;;;5129213;27;20062;-76
2023/02/10 08:38:49;;;;;;;10.15;2.95;;;;;;;;;;5131588;27;20047;-75
2023/02/10 08:41:15;;;;;;;9.95;2.83;;;;;;;;;;5126937;27;20023;-75
2023/02/10 08:43:42;;;;;;;22.20;4.15;;;;;;;;;;5132983;27;20042;-75
2023/02/10 08:46:08;;;;;;;11.10;3.53;;;;;;;;;;5132266;27;20053;-76
2023/02/10 08:48:34;;;;;;;9.13;2.70;;;;;;;;;;5130887;27;20026;-74
2023/02/10 08:51:00;;;;;;;12.00;2.92;;;;;;;;;;5114099;27;20563;-75
2023/02/10 08:53:27;;;;;;;14.25;3.53;;;;;;;;;;5127535;27;20020;-75
2023/02/10 08:56:00;;;;;;;13.77;3.58;;;;;;;;;;5131251;27;20072;-75
2023/02/10 08:58:26;;;;;;;13.25;3.42;;;;;;;;;;5128243;27;20026;-75
2023/02/10 09:00:53;;;;;;;10.02;3.22;;;;;;;;;;5118397;27;20027;-75
2023/02/10 09:03:19;;;;;;;12.77;3.85;;;;;;;;;;5130085;27;20039;-75
2023/02/10 09:05:46;;;;;;;7.35;2.97;;;;;;;;;;5131732;27;20106;-74
2023/02/10 09:08:16;;;;;;;8.82;3.45;;;;;;;;;;5119293;27;20030;-83
2023/02/10 09:10:42;;;;;;;8.40;3.08;;;;;;;;;;5111920;27;20041;-81
2023/02/10 09:13:09;;;;;;;10.30;3.50;;;;;;;;;;5111061;27;20031;-80
2023/02/10 09:15:40;;;;;;;13.75;3.22;;;;;;;;;;5109374;27;20116;-81
2023/02/10 09:18:06;;;;;;;10.63;3.22;;;;;;;;;;5122348;27;20514;-76
2023/02/10 09:20:32;;;;;;;8.63;3.08;;;;;;;;;;5139980;27;20647;-75
2023/02/10 09:22:58;;;;;;;11.63;4.35;;;;;;;;;;5133267;27;20084;-74
2023/02/10 09:25:25;;;;;;;9.05;2.92;;;;;;;;;;5134917;27;20027;-74
2023/02/10 09:27:57;;;;;;;7.05;3.15;;;;;;;;;;5130512;27;20140;-75
2023/02/10 09:30:24;;;;;;;11.75;2.90;;;;;;;;;;5138055;27;20019;-74
2023/02/10 09:32:50;;;;;;;14.13;3.42;;;;;;;;;;5139604;27;20027;-75
2023/02/10 09:35:16;;;;;;;8.35;3.22;;;;;;;;;;5133433;27;20178;-74
2023/02/10 09:37:42;;;;;;;7.38;3.03;;;;;;;;;;5136282;27;20019;-75
2023/02/10 09:40:14;;;;;;;8.48;2.70;;;;;;;;;;5139485;27;20498;-74
2023/02/10 09:42:41;;;;;;;;;;;;;;;;;;5136331;27;20534;-75
2023/02/10 09:45:11;;;;;;;7.72;2.63;;;;;;;;;;5124593;27;19903;-74
2023/02/10 09:47:41;;;;;;;15.65;4.32;;;;;;;;;;5133420;27;20650;-74
2023/02/10 09:50:13;;;;;;;13.65;3.30;;;;;;;;;;5141349;27;20238;-74
2023/02/10 09:52:49;;;;;;;6.70;3.03;;;;;;;;;;5130830;27;20097;-73
2023/02/10 09:55:18;;;;;;;12.20;2.78;;;;;;;;;;5140794;27;20030;-73
2023/02/10 09:57:54;;;;;;;7.38;2.72;;;;;;;;;;5114163;27;20027;-74
2023/02/10 10:00:44;;;;;;;6.47;3.17;;;;;;;;;;5138982;27;20026;-74
2023/02/10 10:03:16;;;;;;;6.93;2.90;;;;;;;;;;5117502;27;20078;-74
2023/02/10 10:05:42;;;;;;;;;;;;;;;;;;5137682;27;20433;-74
2023/02/10 10:08:15;;;;;;;4.63;2.28;;;;;;;;;;5134091;27;19913;-74
2023/02/10 10:10:44;;;;;;;6.15;2.22;;;;;;;;;;5134457;27;20046;-74
2023/02/10 10:13:37;;;;;;;5.45;2.42;;;;;;;;;;5137028;27;20019;-75
2023/02/10 10:16:06;;;;;;;6.72;2.50;;;;;;;;;;5132704;27;20049;-74
2023/02/10 10:18:41;;;;;;;4.35;2.25;;;;;;;;;;5138548;27;20019;-74
2023/02/10 10:21:17;;;;;;;8.30;2.67;;;;;;;;;;5130325;27;20047;-74
2023/02/10 10:23:49;;;;;;;6.95;2.30;;;;;;;;;;5131115;27;20110;-74
2023/02/10 10:26:15;;;;;;;11.88;2.92;;;;;;;;;;5121858;27;20080;-74
2023/02/10 10:28:42;;;;;;;5.22;2.60;;;;;;;;;;5133043;27;20070;-74
2023/02/10 10:31:19;;;;;;;9.13;3.40;;;;;;;;;;5136063;27;20130;-74
2023/02/10 10:33:50;;;;;;;17.42;3.33;;;;;;;;;;5130141;27;20058;-75
2023/02/10 10:36:17;;;;;;;9.18;2.55;;;;;;;;;;5136941;27;20031;-75
2023/02/10 10:38:47;;;;;;;9.40;2.88;;;;;;;;;;5129285;27;20007;-75
2023/02/10 10:41:14;;;;;;;7.57;2.78;;;;;;;;;;5128769;27;20019;-75
2023/02/10 10:43:45;;;;;;;11.07;3.30;;;;;;;;;;5134696;27;20091;-75
2023/02/10 10:46:34;;;;;;;9.82;3.85;;;;;;;;;;5133288;27;20483;-75
2023/02/10 10:49:00;;;;;;;7.75;2.67;;;;;;;;;;5129159;27;20517;-75
2023/02/10 10:51:27;;;;;;;8.65;2.97;;;;;;;;;;5126295;27;20027;-74
2023/02/10 10:53:54;;;;;;;6.78;3.08;;;;;;;;;;5129156;27;20023;-75
2023/02/10 10:56:34;;;;;;;7.38;2.90;;;;;;;;;;5130772;27;20034;-75
2023/02/10 10:59:01;;;;;;;9.00;3.17;;;;;;;;;;5129200;27;20007;-74
2023/02/10 11:01:35;;;;;;;5.88;3.13;;;;;;;;;;5135947;27;20019;-74
2023/02/10 11:04:11;;;;;;;6.18;3.03;;;;;;;;;;5110211;27;20068;-75
2023/02/10 11:06:38;;;;;;;11.25;3.72;;;;;;;;;;5125568;27;20491;-74
2023/02/10 11:09:06;;;;;;;4.97;3.38;;;;;;;;;;5127417;27;20023;-74
2023/02/10 11:11:40;;;;;;;9.00;3.60;;;;;;;;;;5127288;27;20015;-75
2023/02/10 11:14:33;;;;;;;7.45;2.72;;;;;;;;;;5131098;27;20128;-75
2023/02/10 11:17:01;;;;;;;7.88;3.05;;;;;;;;;;5124865;27;20049;-76
2023/02/10 11:19:28;;;;;;;6.60;3.42;;;;;;;;;;5131896;27;20386;-75
2023/02/10 11:21:55;;;;;;;9.52;4.03;;;;;;;;;;5133871;27;20653;-75
2023/02/10 11:24:21;;;;;;;11.00;3.78;;;;;;;;;;5129080;27;20033;-75
2023/02/10 11:27:12;;;;;;;8.82;3.40;;;;;;;;;;5135039;27;20018;-75
2023/02/10 11:29:47;;;;;;;5.45;3.00;;;;;;;;;;5125866;27;20061;-74
2023/02/10 11:32:33;;;;;;;8.52;4.63;;;;;;;;;;5130528;27;20019;-75
2023/02/10 11:35:02;;;;;;;8.07;3.63;;;;;;;;;;5131301;27;20035;-75
2023/02/10 11:37:30;;;;;;;6.35;4.05;;;;;;;;;;5132215;27;20027;-74
2023/02/10 11:39:58;;;;;;;8.77;3.40;;;;;;;;;;5134704;27;20031;-74
2023/02/10 11:42:26;;;;;;;9.10;3.65;;;;;;;;;;5137277;27;20059;-74
2023/02/10 11:44:56;;;;;;;5.47;3.47;;;;;;;;;;5135646;27;20038;-74
2023/02/10 11:47:22;;;;;;;7.55;3.50;;;;;;;;;;5134049;27;20375;-74
2023/02/10 11:49:49;;;;;;;8.02;3.63;;;;;;;;;;5131105;27;20020;-74
2023/02/10 11:52:17;;;;;;;13.25;3.97;;;;;;;;;;5133522;27;20023;-74
2023/02/10 11:54:43;;;;;;;9.57;3.70;;;;;;;;;;5133213;27;20011;-75
2023/02/10 12:00:10;;;;;;;7.00;3.60;;;;;;;;;;5130905;27;20034;-75
2023/02/10 12:02:39;;;;;;;8.38;3.50;;;;;;;;;;5142235;27;20030;-75
2023/02/10 12:05:08;;;;;;;10.18;4.45;;;;;;;;;;5141804;27;21114;-74
2023/02/10 12:07:47;;;;;;;6.90;3.70;;;;;;;;;;5133169;27;20133;-75
2023/02/10 12:10:20;;;;;;;8.85;3.80;;;;;;;;;;5141207;27;20098;-75
2023/02/10 12:12:49;;;;;;;11.07;4.15;;;;;;;;;;5137046;27;20044;-75
2023/02/10 12:15:21;;;;;;;9.98;4.20;;;;;;;;;;5113713;27;20356;-75
2023/02/10 12:17:53;;;;;;;9.10;3.78;;;;;;;;;;5133874;27;20019;-75
2023/02/10 12:20:32;;;;;;;8.23;4.05;;;;;;;;;;5121848;27;20216;-75
2023/02/10 12:22:58;;;;;;;9.23;4.30;;;;;;;;;;5135892;27;20023;-75
2023/02/10 12:25:28;;;;;;;9.02;4.30;;;;;;;;;;5139775;27;20588;-75
2023/02/10 12:28:20;;;;;;;8.20;3.88;;;;;;;;;;5137304;27;20577;-75
2023/02/10 12:30:51;;;;;;;11.77;3.75;;;;;;;;;;5137280;27;20101;-75
2023/02/10 12:33:36;;;;;;;9.75;4.30;;;;;;;;;;5133956;27;20027;-74
2023/02/10 12:36:11;;;;;;;10.05;4.00;;;;;;;;;;5138022;27;20088;-75
2023/02/10 12:38:41;;;;;;;10.13;4.50;;;;;;;;;;5128332;27;20668;-75
2023/02/10 12:41:24;;;;;;;10.80;4.22;;;;;;;;;;5133599;27;20033;-75
2023/02/10 12:44:06;;;;;;;8.68;5.05;;;;;;;;;;5133293;27;20450;-75
2023/02/10 12:46:48;;;;;;;10.00;4.22;;;;;;;;;;5137516;27;20572;-75
2023/02/10 12:49:27;;;;;;;10.27;5.68;;;;;;;;;;5128333;27;20420;-74
2023/02/10 12:52:12;;;;;;;10.02;4.65;;;;;;;;;;5131041;27;20118;-74
2023/02/10 12:54:45;;;;;;;10.23;5.47;;;;;;;;;;5127322;27;20102;-74
2023/02/10 12:57:14;;;;;;;8.75;4.72;;;;;;;;;;5130539;27;20035;-75
2023/02/10 12:59:46;;;;;;;10.93;5.25;;;;;;;;;;5137659;27;20151;-74
2023/02/10 13:02:18;;;;;;;12.63;5.15;;;;;;;;;;5129038;27;20110;-75
2023/02/10 13:04:46;;;;;;;7.07;4.45;;;;;;;;;;5144601;27;20058;-73
2023/02/10 13:07:12;;;;;;;10.38;4.85;;;;;;;;;;5110760;27;20031;-76
2023/02/10 13:09:55;;;;;;;10.27;5.30;;;;;;;;;;5128107;27;20027;-76
2023/02/10 13:12:22;;;;;;;7.03;4.18;;;;;;;;;;5145938;27;20109;-78
2023/02/10 13:14:50;;;;;;;12.35;5.05;;;;;;;;;;5124454;27;20030;-76
2023/02/10 13:17:16;;;;;;;9.48;5.15;;;;;;;;;;5132803;27;20877;-77
2023/02/10 13:19:42;;;;;;;10.77;5.18;;;;;;;;;;5123499;27;20213;-78
2023/02/10 13:22:12;;;;;;;12.30;6.70;;;;;;;;;;5120443;27;20070;-77
2023/02/10 13:24:49;;;;;;;10.52;4.47;;;;;;;;;;5119056;27;20609;-76
2023/02/10 13:27:34;;;;;;;8.50;4.40;;;;;;;;;;5129050;27;20757;-77
2023/02/10 13:30:13;;;;;;;11.48;4.82;;;;;;;;;;5119439;27;20042;-76
2023/02/10 13:32:51;;;;;;;8.48;4.45;;;;;;;;;;5130140;27;20023;-73
2023/02/10 13:35:20;;;;;;;8.48;3.97;;;;;;;;;;5134968;27;20050;-74
2023/02/10 13:37:50;;;;;;;9.65;4.18;;;;;;;;;;5145090;27;20026;-77
2023/02/10 13:40:21;;;;;;;9.80;4.80;;;;;;;;;;5122905;27;20074;-74
2023/02/10 13:43:08;;;;;;;15.23;5.47;;;;;;;;;;5132187;27;20060;-75
2023/02/10 13:45:36;;;;;;;11.43;4.25;;;;;;;;;;5139344;27;20029;-75
2023/02/10 13:48:08;;;;;;;9.40;4.53;;;;;;;;;;5121744;27;20304;-74
2023/02/10 13:50:47;;;;;;;10.00;5.07;;;;;;;;;;5131020;27;20019;-75
2023/02/10 13:53:28;;;;;;;6.32;4.03;;;;;;;;;;5132709;27;20027;-74
2023/02/10 13:56:13;;;;;;;10.55;3.83;;;;;;;;;;5131426;27;20570;-74
2023/02/10 13:58:51;;;;;;;8.50;3.97;;;;;;;;;;5121888;27;20022;-76
2023/02/10 14:01:36;;;;;;;7.78;4.00;;;;;;;;;;5141102;27;20038;-72
2023/02/10 14:04:03;;;;;;;8.73;4.00;;;;;;;;;;5140250;27;20488;-72
2023/02/10 14:06:33;;;;;;;11.10;4.68;;;;;;;;;;5135268;27;20574;-73
2023/02/10 14:09:04;;;;;;;12.20;4.75;;;;;;;;;;5135640;27;20767;-72
2023/02/10 14:11:41;;;;;;;6.10;3.85;;;;;;;;;;5122684;27;20494;-72
2023/02/10 14:14:18;;;;;;;11.70;6.47;;;;;;;;;;5133395;27;20036;-72
2023/02/10 14:16:45;;;;;;;7.63;4.40;;;;;;;;;;5131959;27;20023;-72
2023/02/10 14:19:31;;;;;;;11.40;3.83;;;;;;;;;;5110715;27;20035;-73
2023/02/10 14:21:58;;;;;;;13.32;4.68;;;;;;;;;;5140083;27;20030;-71
2023/02/10 14:24:26;;;;;;;7.68;4.45;;;;;;;;;;5131043;27;20091;-71
2023/02/10 14:26:52;;;;;;;7.80;3.60;;;;;;;;;;5140652;27;20597;-75
2023/02/10 14:29:20;;;;;;;9.73;3.95;;;;;;;;;;5136713;27;20042;-71
2023/02/10 14:31:49;;;;;;;9.82;4.00;;;;;;;;;;5130840;27;20033;-71
2023/02/10 14:34:19;;;;;;;12.38;6.18;;;;;;;;;;5138386;27;20034;-72
2023/02/10 14:36:59;;;;;;;13.48;7.80;;;;;;;;;;5142877;27;20767;-73
2023/02/10 14:39:27;;;;;;;8.25;4.43;;;;;;;;;;5132768;27;20087;-73
2023/02/10 14:41:54;;;;;;;13.55;5.20;;;;;;;;;;5133640;27;20038;-72
2023/02/10 14:44:33;;;;;;;11.88;5.82;;;;;;;;;;5134655;27;20060;-73
2023/02/10 14:46:59;;;;;;;9.00;5.38;;;;;;;;;;5131790;27;20527;-73
2023/02/10 14:49:28;;;;;;;9.23;4.45;;;;;;;;;;5114715;27;20026;-73
2023/02/10 14:51:54;;;;;;;17.08;5.72;;;;;;;;;;5136163;27;20042;-71